Time;durP1;ratioP1;P1;durP2;ratioP2;P2;SDS_P1;SDS_P2;PMS_P1;PMS_P2;Temp;Humidity;BMP_temperature;BMP_pressure;BME280_temperature;BME280_humidity;BME280_pressure;Samples;Min_cycle;Max_cycle;Signal;HPM_P1;HPM_P2
2022/11/08 00:02:14;;;;;;;;;7.67;7.00;;;;;13.47;73.43;100591.63;5055812;28;45182;-48
2022/11/08 00:04:39;;;;;;;;;10.67;8.33;;;;;13.45;73.37;100598.16;5057033;28;45375;-46
2022/11/08 00:15:16;;;;;;;;;10.00;8.33;;;;;13.34;73.43;100579.81;5056700;28;45473;-45
2022/11/08 00:17:42;;;;;;;;;13.00;7.67;;;;;13.21;73.30;100561.59;5056670;28;45445;-47
2022/11/08 00:20:08;;;;;;;;;15.00;9.67;;;;;13.22;73.18;100572.13;5057363;28;45358;-46
2022/11/08 00:22:34;;;;;;;;;10.67;7.00;;;;;13.23;73.48;100556.94;5057418;28;45384;-48
2022/11/08 00:24:59;;;;;;;;;10.67;9.00;;;;;13.20;73.12;100559.94;5057715;28;45583;-48
2022/11/08 00:27:26;;;;;;;;;11.67;10.67;;;;;13.17;73.16;100549.56;5057027;28;47122;-45
2022/11/08 00:29:52;;;;;;;;;5.00;4.67;;;;;13.20;73.17;100547.41;5056097;28;45226;-47
2022/11/08 00:32:20;;;;;;;;;8.67;7.00;;;;;13.21;72.95;100540.22;5057379;28;45235;-45
2022/11/08 00:34:47;;;;;;;;;11.00;8.00;;;;;13.19;73.11;100537.72;5057439;28;45284;-46
2022/11/08 00:37:13;;;;;;;;;9.33;7.00;;;;;13.13;73.04;100527.69;5057221;28;46199;-49
2022/11/08 00:39:39;;;;;;;;;6.00;6.00;;;;;13.12;72.70;100527.88;5056802;28;45316;-47
2022/11/08 00:42:04;;;;;;;;;8.33;8.00;;;;;13.08;72.95;100522.03;5057342;28;45809;-46
2022/11/08 00:44:29;;;;;;;;;7.00;7.00;;;;;13.07;73.11;100504.34;5057345;28;45170;-47
2022/11/08 00:46:55;;;;;;;;;8.00;7.00;;;;;13.04;73.01;100499.34;5056758;28;46022;-46
2022/11/08 00:49:21;;;;;;;;;8.00;5.00;;;;;13.05;72.40;100501.00;5057135;28;45280;-47
2022/11/08 00:51:46;;;;;;;;;6.67;4.00;;;;;13.05;72.31;100494.81;5057204;28;45470;-48
2022/11/08 00:54:15;;;;;;;;;7.00;6.67;;;;;13.06;72.20;100489.34;5057985;28;45442;-47
2022/11/08 00:56:40;;;;;;;;;7.33;4.00;;;;;13.05;72.13;100482.31;5060409;28;46062;-47
2022/11/08 00:59:06;;;;;;;;;9.00;4.67;;;;;13.03;72.36;100475.50;5060383;28;45361;-44
2022/11/08 01:01:31;;;;;;;;;9.00;4.33;;;;;13.01;72.28;100478.31;5060957;28;45413;-47
2022/11/08 01:03:57;;;;;;;;;4.00;4.00;;;;;12.96;72.27;100477.97;5061083;28;45331;-45
2022/11/08 01:06:24;;;;;;;;;10.33;6.00;;;;;12.94;71.99;100488.00;5060837;28;45386;-48
2022/11/08 01:08:50;;;;;;;;;7.67;4.00;;;;;12.93;71.87;100480.97;5060475;28;45368;-44
2022/11/08 01:11:19;;;;;;;;;7.00;4.00;;;;;12.92;72.17;100472.13;5060666;28;45330;-47
2022/11/08 01:13:45;;;;;;;;;5.33;5.33;;;;;12.97;71.71;100476.97;5060949;28;45223;-48
2022/11/08 01:16:13;;;;;;;;;4.67;4.67;;;;;12.96;71.61;100465.47;5060196;28;45376;-47
2022/11/08 01:18:39;;;;;;;;;4.67;4.00;;;;;12.96;71.98;100464.63;5060536;28;45320;-47
2022/11/08 01:21:05;;;;;;;;;7.67;3.33;;;;;12.92;71.46;100482.00;5060626;28;45420;-47
2022/11/08 01:23:31;;;;;;;;;3.00;3.00;;;;;12.91;71.45;100472.31;5060546;28;45521;-47
2022/11/08 01:26:04;;;;;;;;;8.33;7.00;;;;;12.89;71.35;100463.63;5060057;28;46239;-47
2022/11/08 01:28:30;;;;;;;;;4.00;4.00;;;;;12.85;71.37;100463.16;5060116;28;45212;-45
2022/11/08 01:30:55;;;;;;;;;7.67;6.33;;;;;12.84;71.83;100466.81;5060242;28;45240;-46
2022/11/08 01:33:20;;;;;;;;;4.33;4.33;;;;;12.83;71.73;100470.50;5060590;28;45388;-52
2022/11/08 01:35:46;;;;;;;;;6.33;6.33;;;;;12.84;71.40;100463.31;5060126;28;46446;-48
2022/11/08 01:38:12;;;;;;;;;8.00;3.67;;;;;12.82;71.72;100458.16;5060158;28;45367;-47
2022/11/08 01:40:45;;;;;;;;;6.00;5.33;;;;;12.83;71.27;100469.66;5059989;28;45315;-48
2022/11/08 01:43:29;;;;;;;;;5.67;4.00;;;;;12.80;71.86;100467.31;5060235;28;45291;-48
2022/11/08 01:46:25;;;;;;;;;7.33;3.67;;;;;12.72;71.80;100469.00;5059707;28;47173;-47
2022/11/08 01:48:56;;;;;;;;;6.33;4.00;;;;;12.75;71.89;100467.81;5059758;28;45209;-48
2022/11/08 01:51:27;;;;;;;;;7.00;4.00;;;;;12.73;71.43;100461.84;5059816;28;45303;-46
2022/11/08 01:53:53;;;;;;;;;3.00;3.00;;;;;12.70;71.41;100454.97;5060064;28;45336;-45
2022/11/08 01:56:20;;;;;;;;;4.00;4.00;;;;;12.71;71.24;100453.13;5059405;28;46055;-47
2022/11/08 01:58:49;;;;;;;;;4.00;4.00;;;;;12.67;71.66;100441.13;5059439;28;45447;-46
2022/11/08 02:01:14;;;;;;;;;4.00;4.00;;;;;12.65;71.74;100449.31;5059627;28;45296;-46
2022/11/08 02:03:40;;;;;;;;;6.00;4.00;;;;;12.49;71.72;100427.97;5059683;28;45414;-46
2022/11/08 02:06:06;;;;;;;;;6.33;4.00;;;;;12.56;72.03;100437.00;5058584;28;46282;-48
2022/11/08 02:08:37;;;;;;;;;4.67;3.00;;;;;12.59;71.49;100436.63;5059496;28;45340;-48
2022/11/08 02:11:04;;;;;;;;;5.33;4.33;;;;;12.59;71.29;100436.63;5059320;28;45307;-49
2022/11/08 02:13:32;;;;;;;;;8.00;3.67;;;;;12.58;71.23;100429.63;5059679;28;45383;-47
2022/11/08 02:15:58;;;;;;;;;3.00;3.00;;;;;12.52;71.55;100416.16;5059270;28;46020;-45
2022/11/08 02:18:27;;;;;;;;;7.00;3.00;;;;;12.52;71.47;100411.63;5059308;28;45607;-45
2022/11/08 02:20:52;;;;;;;;;9.00;4.00;;;;;12.56;71.54;100412.97;5059260;28;45407;-46
2022/11/08 02:23:27;;;;;;;;;4.67;4.00;;;;;12.55;71.52;100405.94;5059585;28;45314;-45
2022/11/08 02:25:53;;;;;;;;;3.33;3.00;;;;;12.53;71.01;100402.63;5059145;28;46254;-47
2022/11/08 02:28:18;;;;;;;;;3.67;3.33;;;;;12.54;71.06;100400.78;5058997;28;45335;-45
2022/11/08 02:30:44;;;;;;;;;7.00;4.33;;;;;12.52;71.50;100384.97;5059007;28;45336;-45
2022/11/08 02:33:20;;;;;;;;;7.00;4.00;;;;;12.51;71.20;100375.25;5059148;28;45406;-46
2022/11/08 02:35:52;;;;;;;;;4.00;3.00;;;;;12.49;71.24;100371.94;5059018;28;45961;-49
2022/11/08 02:38:17;;;;;;;;;4.67;4.00;;;;;12.47;70.65;100371.25;5058801;28;45345;-48
2022/11/08 02:40:48;;;;;;;;;3.67;3.00;;;;;12.44;71.23;100369.78;5058877;28;45374;-48
2022/11/08 02:43:13;;;;;;;;;6.00;4.00;;;;;12.44;70.83;100355.63;5059064;28;45374;-45
2022/11/08 02:45:39;;;;;;;;;6.67;3.00;;;;;12.43;70.82;100362.78;5058636;28;45328;-49
2022/11/08 02:48:05;;;;;;;;;3.33;3.33;;;;;12.41;70.64;100371.94;5058481;28;45319;-47
2022/11/08 02:50:30;;;;;;;;;6.33;4.00;;;;;12.39;71.04;100364.13;5058758;28;45317;-47
2022/11/08 02:52:56;;;;;;;;;8.33;6.00;;;;;12.37;70.54;100371.44;5058676;28;45443;-48
2022/11/08 02:55:21;;;;;;;;;4.00;4.00;;;;;12.39;70.76;100361.47;5058741;28;45320;-45
2022/11/08 02:57:46;;;;;;;;;8.33;3.67;;;;;12.36;70.93;100352.94;5058462;28;45413;-45
2022/11/08 03:00:12;;;;;;;;;6.00;6.00;;;;;12.31;70.48;100345.47;5058745;28;45404;-45
2022/11/08 03:02:37;;;;;;;;;4.00;4.00;;;;;12.28;70.78;100343.13;5057598;28;45339;-46
2022/11/08 03:05:03;;;;;;;;;10.33;3.67;;;;;12.24;70.47;100344.44;5058206;28;46210;-47
2022/11/08 03:07:28;;;;;;;;;7.00;3.00;;;;;12.27;70.14;100335.28;5058370;28;45441;-48
2022/11/08 03:09:54;;;;;;;;;4.00;4.00;;;;;12.26;69.97;100336.28;5058591;28;45402;-47
2022/11/08 03:12:19;;;;;;;;;4.00;2.00;;;;;12.27;70.24;100361.97;5058757;28;45410;-47
2022/11/08 03:14:44;;;;;;;;;9.33;3.00;;;;;12.27;69.77;100354.78;5057101;28;47122;-47
2022/11/08 03:17:10;;;;;;;;;7.00;4.67;;;;;12.28;70.13;100359.13;5058346;28;45302;-46
2022/11/08 03:19:35;;;;;;;;;3.00;3.00;;;;;12.26;69.50;100341.59;5058335;28;45247;-47
2022/11/08 03:22:00;;;;;;;;;5.33;4.00;;;;;12.30;69.43;100342.94;5057203;28;45367;-46
2022/11/08 03:24:26;;;;;;;;;6.00;4.00;;;;;12.27;68.88;100338.78;5058213;28;46092;-46
2022/11/08 03:26:51;;;;;;;;;6.00;4.00;;;;;12.34;68.23;100360.28;5058315;28;45382;-46
2022/11/08 03:29:16;;;;;;;;;3.00;3.00;;;;;12.37;67.92;100360.78;5058343;28;45409;-46
2022/11/08 03:31:42;;;;;;;;;4.00;4.00;;;;;12.42;67.61;100360.28;5058463;28;45232;-47
2022/11/08 03:34:09;;;;;;;;;4.00;3.67;;;;;12.43;67.61;100340.59;5057894;28;45388;-48
2022/11/08 03:36:34;;;;;;;;;2.33;2.33;;;;;12.49;66.71;100356.75;5057959;28;45379;-46
2022/11/08 03:39:00;;;;;;;;;3.00;2.67;;;;;12.52;66.60;100358.28;5057997;28;45438;-45
2022/11/08 03:41:25;;;;;;;;;3.33;2.33;;;;;12.54;66.35;100353.59;5058051;28;45506;-45
2022/11/08 03:43:50;;;;;;;;;2.33;2.33;;;;;12.55;66.52;100351.75;5057796;28;46940;-45
2022/11/08 03:46:16;;;;;;;;;2.67;2.00;;;;;12.60;65.93;100346.72;5057731;28;45444;-45
2022/11/08 03:48:41;;;;;;;;;3.33;3.33;;;;;12.62;66.40;100344.75;5057930;28;45326;-47
2022/11/08 03:51:06;;;;;;;;;3.67;3.67;;;;;12.63;65.95;100349.06;5058049;28;45794;-47
2022/11/08 03:53:32;;;;;;;;;3.67;3.00;;;;;12.65;66.56;100345.25;5057787;28;45932;-46
2022/11/08 03:55:58;;;;;;;;;3.67;3.67;;;;;12.67;65.67;100342.41;5057948;28;45362;-46
2022/11/08 03:58:24;;;;;;;;;9.33;3.67;;;;;12.68;65.88;100342.25;5057652;28;45422;-49
2022/11/08 04:00:49;;;;;;;;;6.00;3.67;;;;;12.66;65.42;100343.41;5058053;28;45396;-48
2022/11/08 04:03:15;;;;;;;;;3.33;2.33;;;;;12.67;65.36;100351.22;5057436;28;45750;-49
2022/11/08 04:05:40;;;;;;;;;8.00;1.00;;;;;12.67;65.24;100348.56;5057647;28;45234;-47
2022/11/08 04:08:05;;;;;;;;;3.33;3.33;;;;;12.69;65.44;100345.75;5057889;28;45356;-46
2022/11/08 04:10:31;;;;;;;;;2.00;2.00;;;;;12.69;65.44;100351.91;5057773;28;45331;-47
2022/11/08 04:15:46;;;;;;;;;7.67;3.67;;;;;12.69;65.48;100351.06;5057469;28;45327;-49
2022/11/08 04:23:43;;;;;;;;;6.33;6.33;;;;;12.63;65.03;100333.88;5057243;28;45332;-46
2022/11/08 04:26:10;;;;;;;;;4.67;4.67;;;;;12.66;65.29;100338.06;5057150;28;45327;-46
2022/11/08 04:28:38;;;;;;;;;9.33;4.00;;;;;12.64;65.46;100342.72;5057052;28;45249;-49
2022/11/08 04:31:09;;;;;;;;;6.67;2.00;;;;;12.62;65.05;100345.56;5057203;28;45335;-45
2022/11/08 04:33:35;;;;;;;;;3.67;3.67;;;;;12.57;65.34;100350.59;5057163;28;47150;-45
2022/11/08 04:36:03;;;;;;;;;6.33;4.00;;;;;12.59;65.25;100345.91;5056968;28;45381;-48
2022/11/08 04:38:30;;;;;;;;;3.67;3.67;;;;;12.57;65.14;100331.91;5057216;28;45393;-49
2022/11/08 04:41:25;;;;;;;;;4.00;4.00;;;;;12.54;64.98;100353.59;5057225;28;45546;-47
2022/11/08 04:43:53;;;;;;;;;6.33;2.00;;;;;12.51;65.22;100343.25;5034525;28;46494;-49
2022/11/08 04:46:20;;;;;;;;;4.00;4.00;;;;;12.53;65.13;100335.94;5034480;28;45382;-45
2022/11/08 04:48:48;;;;;;;;;4.00;4.00;;;;;12.53;65.38;100341.25;5034482;28;45492;-49
2022/11/08 04:51:16;;;;;;;;;3.00;3.00;;;;;12.52;64.90;100334.25;5035093;28;45431;-46
2022/11/08 04:53:42;;;;;;;;;4.00;4.00;;;;;12.48;65.14;100335.59;5034468;28;46889;-49
2022/11/08 04:56:10;;;;;;;;;6.00;3.33;;;;;12.50;64.83;100336.25;5034427;28;45447;-47
2022/11/08 04:58:38;;;;;;;;;3.00;3.00;;;;;12.50;64.79;100346.94;5034600;28;45388;-49
2022/11/08 05:01:06;;;;;;;;;2.67;2.67;;;;;12.51;65.13;100345.09;5034495;28;45341;-46
2022/11/08 05:03:32;;;;;;;;;6.00;4.00;;;;;12.50;64.97;100346.94;5034310;28;46459;-49
2022/11/08 05:06:14;;;;;;;;;4.00;4.00;;;;;12.44;65.39;100336.94;5034491;28;45380;-48
2022/11/08 05:08:40;;;;;;;;;2.67;2.00;;;;;12.43;65.39;100338.78;5034365;28;45397;-47
2022/11/08 05:11:11;;;;;;;;;2.67;2.67;;;;;12.41;65.07;100326.59;5034640;28;45439;-46
2022/11/08 05:13:37;;;;;;;;;7.33;5.33;;;;;12.39;64.73;100323.28;5034322;28;47144;-50
2022/11/08 05:16:07;;;;;;;;;4.00;3.67;;;;;12.38;65.47;100326.94;5034398;28;45387;-48
2022/11/08 05:18:33;;;;;;;;;4.00;4.00;;;;;12.35;65.43;100345.97;5034252;28;45451;-48
2022/11/08 05:23:46;;;;;;;;;3.33;3.33;;;;;12.32;65.35;100330.28;5056410;28;45308;-50
2022/11/08 05:26:12;;;;;;;;;6.67;4.00;;;;;12.30;65.47;100330.44;5056480;28;45245;-49
2022/11/08 05:28:39;;;;;;;;;4.00;4.00;;;;;12.31;65.34;100331.28;5056331;28;45300;-46
2022/11/08 05:31:05;;;;;;;;;2.00;2.00;;;;;12.21;64.96;100318.94;5056685;28;45589;-47
2022/11/08 05:33:31;;;;;;;;;4.00;4.00;;;;;12.19;64.76;100318.28;5056140;28;45418;-47
2022/11/08 05:36:00;;;;;;;;;5.67;3.33;;;;;12.26;65.52;100334.44;5056251;28;45346;-46
2022/11/08 05:38:26;;;;;;;;;4.00;4.00;;;;;12.29;64.97;100336.78;5056478;28;45341;-47
2022/11/08 05:40:51;;;;;;;;;4.67;3.00;;;;;12.30;65.37;100329.59;5056807;28;45488;-48
2022/11/08 05:43:16;;;;;;;;;2.00;2.00;;;;;12.28;65.32;100326.28;5058217;28;47239;-46
2022/11/08 05:45:44;;;;;;;;;4.67;4.67;;;;;12.29;64.91;100330.59;5059663;28;45149;-48
2022/11/08 05:48:09;;;;;;;;;4.00;4.00;;;;;12.31;65.00;100331.28;5060188;28;45336;-46
2022/11/08 05:50:35;;;;;;;;;5.00;3.00;;;;;12.25;65.04;100327.44;5059917;28;45165;-48
2022/11/08 05:53:01;;;;;;;;;3.67;3.67;;;;;12.28;65.03;100335.13;5059847;28;47030;-49
2022/11/08 05:55:26;;;;;;;;;11.00;6.00;;;;;12.24;65.18;100320.44;5059888;28;45321;-48
2022/11/08 05:57:52;;;;;;;;;6.00;4.00;;;;;12.27;65.11;100329.97;5059708;28;45336;-48
2022/11/08 06:00:18;;;;;;;;;3.67;3.67;;;;;12.24;64.64;100333.78;5059907;28;45449;-47
2022/11/08 06:02:44;;;;;;;;;4.67;4.67;;;;;12.25;65.08;100330.09;5059427;28;47278;-48
2022/11/08 06:05:10;;;;;;;;;6.67;4.00;;;;;12.17;65.33;100319.44;5059415;28;45457;-47
2022/11/08 06:07:36;;;;;;;;;7.00;5.67;;;;;12.22;65.23;100327.81;5059730;28;45313;-48
2022/11/08 06:10:02;;;;;;;;;6.67;5.33;;;;;12.23;64.86;100332.94;5058229;28;45407;-48
2022/11/08 06:12:28;;;;;;;;;4.00;4.00;;;;;12.22;64.80;100325.13;5059400;28;46120;-48
2022/11/08 06:14:53;;;;;;;;;9.67;4.00;;;;;12.20;65.22;100319.94;5059195;28;45206;-46
2022/11/08 06:17:18;;;;;;;;;3.00;3.00;;;;;12.19;65.07;100323.63;5059315;28;45428;-47
2022/11/08 06:19:44;;;;;;;;;4.00;3.00;;;;;12.21;65.32;100315.44;5059475;28;45212;-47
2022/11/08 06:22:09;;;;;;;;;4.33;4.33;;;;;12.23;65.30;100337.47;5059227;28;45366;-46
2022/11/08 06:24:35;;;;;;;;;3.00;3.00;;;;;12.22;64.83;100335.81;5059050;28;45426;-48
2022/11/08 06:27:00;;;;;;;;;9.33;5.00;;;;;12.22;65.23;100336.63;5059050;28;45524;-47
2022/11/08 06:29:26;;;;;;;;;3.33;3.00;;;;;12.19;64.92;100328.94;5058885;28;45362;-46
2022/11/08 06:31:51;;;;;;;;;3.67;3.67;;;;;12.19;65.08;100325.47;5058938;28;46897;-46
2022/11/08 06:34:16;;;;;;;;;8.33;6.33;;;;;12.20;64.83;100329.78;5058951;28;45320;-48
2022/11/08 06:36:42;;;;;;;;;8.00;6.00;;;;;12.20;65.28;100335.94;5059161;28;45626;-48
2022/11/08 06:39:07;;;;;;;;;6.00;4.00;;;;;12.13;64.62;100313.59;5059293;28;45311;-49
2022/11/08 06:41:33;;;;;;;;;7.67;4.00;;;;;12.17;65.03;100327.44;5058861;28;46145;-47
2022/11/08 06:43:59;;;;;;;;;7.00;5.33;;;;;12.17;65.27;100346.94;5058896;28;45335;-47
2022/11/08 06:46:25;;;;;;;;;4.00;4.00;;;;;12.05;64.96;100340.28;5058751;28;45310;-46
2022/11/08 06:48:51;;;;;;;;;7.67;3.00;;;;;12.13;65.19;100356.25;5059134;28;45403;-45
2022/11/08 06:51:16;;;;;;;;;6.00;6.00;;;;;12.14;64.90;100359.78;5058420;28;45260;-47
2022/11/08 06:53:42;;;;;;;;;6.33;3.00;;;;;12.17;64.81;100380.78;5057980;28;45377;-47
2022/11/08 06:56:08;;;;;;;;;7.67;6.00;;;;;12.18;65.30;100372.63;5058853;28;45378;-49
2022/11/08 06:58:33;;;;;;;;;7.33;4.00;;;;;12.19;64.70;100360.94;5058915;28;45367;-48
2022/11/08 07:01:02;;;;;;;;;3.33;3.33;;;;;12.17;64.99;100362.09;5058590;28;46227;-47
2022/11/08 07:03:27;;;;;;;;;7.67;4.00;;;;;12.18;64.84;100350.47;5058534;28;45353;-50
2022/11/08 07:05:53;;;;;;;;;7.00;4.33;;;;;12.18;64.55;100374.47;5058536;28;45370;-46
2022/11/08 07:08:18;;;;;;;;;4.00;3.00;;;;;12.17;65.01;100362.09;5058678;28;45348;-47
2022/11/08 07:10:43;;;;;;;;;3.67;3.67;;;;;12.16;64.63;100365.78;5058385;28;45989;-46
2022/11/08 07:13:11;;;;;;;;;7.33;4.67;;;;;12.14;65.20;100373.97;5058301;28;45374;-44
2022/11/08 07:15:38;;;;;;;;;6.00;3.00;;;;;12.08;65.17;100355.94;5058296;28;45395;-45
2022/11/08 07:18:09;;;;;;;;;8.33;8.00;;;;;12.13;65.32;100356.25;5058496;28;45318;-47
2022/11/08 07:20:35;;;;;;;;;6.67;4.33;;;;;12.14;65.28;100365.13;5058071;28;46303;-48
2022/11/08 07:23:00;;;;;;;;;8.00;4.33;;;;;12.15;65.44;100375.63;5058190;28;45320;-48
2022/11/08 07:25:27;;;;;;;;;6.00;3.67;;;;;12.19;64.92;100384.13;5058348;28;45278;-48
2022/11/08 07:27:57;;;;;;;;;5.33;4.00;;;;;12.13;64.80;100380.25;5058630;28;45306;-47
2022/11/08 07:30:22;;;;;;;;;3.33;3.33;;;;;12.20;64.83;100380.44;5058021;28;45494;-45
2022/11/08 07:32:47;;;;;;;;;3.00;2.33;;;;;12.26;65.41;100365.59;5058187;28;45457;-45
2022/11/08 07:35:13;;;;;;;;;3.00;3.00;;;;;12.30;64.55;100367.78;5058345;28;45380;-48
2022/11/08 07:37:38;;;;;;;;;3.00;3.00;;;;;12.27;64.84;100348.63;5058299;28;45427;-45
2022/11/08 07:40:04;;;;;;;;;3.00;2.67;;;;;12.35;64.62;100380.63;5058021;28;47238;-46
2022/11/08 07:42:29;;;;;;;;;8.33;7.00;;;;;12.36;64.93;100380.47;5056496;28;45440;-46
2022/11/08 07:44:55;;;;;;;;;10.00;6.00;;;;;12.33;64.44;100383.44;5055059;28;45664;-49
2022/11/08 07:47:20;;;;;;;;;6.00;4.00;;;;;12.38;64.97;100381.09;5057989;28;45572;-48
2022/11/08 07:49:45;;;;;;;;;6.33;4.00;;;;;12.40;64.85;100391.63;5057458;28;46391;-48
2022/11/08 07:52:11;;;;;;;;;11.00;7.00;;;;;12.40;65.03;100379.13;5057950;28;45286;-46
2022/11/08 07:54:36;;;;;;;;;8.00;2.67;;;;;12.40;65.06;100381.78;5057811;28;45438;-47
2022/11/08 07:57:01;;;;;;;;;5.00;5.00;;;;;12.44;64.77;100384.97;5058081;28;45249;-46
2022/11/08 07:59:27;;;;;;;;;9.00;6.00;;;;;12.48;64.61;100372.94;5057474;28;47447;-50
2022/11/08 08:01:52;;;;;;;;;3.67;3.67;;;;;12.48;64.32;100383.63;5057506;28;45343;-50
2022/11/08 08:04:17;;;;;;;;;4.00;4.00;;;;;12.47;64.38;100377.47;5057048;28;45618;-47
2022/11/08 08:06:43;;;;;;;;;4.00;3.67;;;;;12.48;64.71;100375.63;5057712;28;45463;-48
2022/11/08 08:09:08;;;;;;;;;4.00;3.33;;;;;12.49;64.87;100387.94;5057303;28;45406;-48
2022/11/08 08:11:33;;;;;;;;;4.00;4.00;;;;;12.50;64.92;100373.59;5057205;28;45399;-46
2022/11/08 08:13:59;;;;;;;;;6.33;4.00;;;;;12.52;65.27;100368.13;5055877;28;45667;-50
2022/11/08 08:16:24;;;;;;;;;5.00;2.67;;;;;12.55;65.52;100367.75;5055140;28;45455;-46
2022/11/08 08:18:50;;;;;;;;;3.67;3.67;;;;;12.60;65.10;100376.09;5054620;28;46087;-50
2022/11/08 08:21:16;;;;;;;;;3.67;3.67;;;;;12.64;65.09;100364.94;5054508;28;45697;-47
2022/11/08 08:23:41;;;;;;;;;6.00;3.00;;;;;12.67;65.36;100367.25;5054741;28;45537;-47
2022/11/08 08:26:07;;;;;;;;;3.67;3.00;;;;;12.70;65.29;100393.59;5055164;28;45501;-47
2022/11/08 08:28:32;;;;;;;;;3.00;3.00;;;;;12.66;65.34;100349.56;5054574;28;46091;-46
2022/11/08 08:30:58;;;;;;;;;5.33;5.33;;;;;12.73;65.58;100353.22;5054572;28;45458;-48
2022/11/08 08:33:24;;;;;;;;;4.00;4.00;;;;;12.76;65.86;100345.88;5054915;28;45498;-47
2022/11/08 08:35:51;;;;;;;;;6.67;6.00;;;;;12.77;65.70;100348.41;5054581;28;45463;-47
2022/11/08 08:38:16;;;;;;;;;7.67;5.00;;;;;12.79;65.66;100340.22;5054500;28;46082;-45
2022/11/08 08:40:42;;;;;;;;;3.67;3.67;;;;;12.82;65.73;100347.88;5054656;28;45375;-47
2022/11/08 08:43:07;;;;;;;;;8.67;5.33;;;;;12.83;66.04;100346.88;5054104;28;45885;-47
2022/11/08 08:45:34;;;;;;;;;6.00;4.00;;;;;12.89;65.63;100356.84;5054630;28;45507;-48
2022/11/08 08:48:00;;;;;;;;;4.67;4.67;;;;;12.97;65.62;100351.47;5052602;28;47272;-47
2022/11/08 08:50:28;;;;;;;;;3.00;3.00;;;;;13.06;65.63;100342.47;5054260;28;45434;-49
2022/11/08 08:53:02;;;;;;;;;3.67;3.67;;;;;13.14;65.24;100362.94;5054190;28;45489;-49
2022/11/08 08:55:28;;;;;;;;;4.00;4.00;;;;;13.20;65.28;100360.44;5054602;28;45363;-45
2022/11/08 08:57:54;;;;;;;;;7.00;3.33;;;;;13.22;65.41;100354.91;5054120;28;47229;-49
2022/11/08 09:00:20;;;;;;;;;4.00;4.00;;;;;13.30;65.19;100357.56;5054083;28;45523;-48
2022/11/08 09:02:45;;;;;;;;;4.33;3.00;;;;;13.37;65.03;100365.75;5052775;28;45933;-47
2022/11/08 09:05:12;;;;;;;;;2.33;2.33;;;;;13.43;65.07;100378.38;5054363;28;45507;-47
2022/11/08 09:07:37;;;;;;;;;2.00;2.00;;;;;13.50;65.18;100370.53;5054190;28;45462;-48
2022/11/08 09:10:04;;;;;;;;;6.33;2.67;;;;;13.57;65.23;100375.00;5053776;28;46362;-49
2022/11/08 09:12:31;;;;;;;;;7.33;3.00;;;;;13.66;64.91;100383.81;5054201;28;45395;-47
2022/11/08 09:14:56;;;;;;;;;6.00;4.00;;;;;13.78;64.75;100370.84;5054235;28;45556;-49
2022/11/08 09:17:22;;;;;;;;;4.00;4.00;;;;;13.80;64.72;100356.31;5057524;28;45518;-46
2022/11/08 09:19:47;;;;;;;;;6.00;6.00;;;;;13.97;64.45;100363.19;5057445;28;45477;-48
2022/11/08 09:22:12;;;;;;;;;3.00;2.33;;;;;14.13;64.47;100362.25;5057745;28;45820;-48
2022/11/08 09:24:38;;;;;;;;;3.33;3.00;;;;;14.27;64.03;100362.47;5057837;28;45465;-48
2022/11/08 09:27:04;;;;;;;;;2.00;2.00;;;;;14.34;63.92;100382.16;5057451;28;47309;-45
2022/11/08 09:29:30;;;;;;;;;4.00;2.00;;;;;14.59;63.69;100377.47;5057409;28;45505;-46
2022/11/08 09:31:55;;;;;;;;;4.00;3.67;;;;;14.68;63.32;100365.66;5057251;28;45493;-48
2022/11/08 09:34:21;;;;;;;;;4.67;4.67;;;;;14.89;63.20;100384.50;5057615;28;45633;-48
2022/11/08 09:36:46;;;;;;;;;7.67;3.67;;;;;15.13;62.56;100375.38;5057423;28;45351;-48
2022/11/08 09:39:12;;;;;;;;;4.67;4.00;;;;;15.30;61.69;100375.19;5057098;28;45505;-51
2022/11/08 09:42:08;;;;;;;;;6.33;4.00;;;;;15.52;61.69;100366.19;5056150;28;45352;-48
2022/11/08 09:44:36;;;;;;;;;3.00;3.00;;;;;15.99;61.04;100369.41;5057595;28;45772;-47
2022/11/08 09:47:10;;;;;;;;;7.33;4.00;;;;;16.14;60.47;100362.13;5056995;28;45422;-46
2022/11/08 09:49:43;;;;;;;;;5.67;2.67;;;;;16.21;60.27;100369.19;5056324;28;45392;-48
2022/11/08 09:52:19;;;;;;;;;4.00;3.00;;;;;16.17;60.17;100364.41;5056850;28;45488;-49
2022/11/08 09:54:47;;;;;;;;;4.00;4.00;;;;;16.01;60.61;100346.72;5057368;28;45428;-48
2022/11/08 09:57:23;;;;;;;;;3.00;3.00;;;;;15.96;60.69;100359.88;5056923;28;45406;-46
2022/11/08 09:59:55;;;;;;;;;3.00;3.00;;;;;15.89;60.98;100359.00;5054775;28;45430;-46
2022/11/08 10:02:23;;;;;;;;;4.33;4.00;;;;;15.93;61.04;100368.31;5056772;28;45414;-46
2022/11/08 10:04:58;;;;;;;;;3.33;2.67;;;;;15.92;61.30;100359.41;5057380;28;45422;-48
2022/11/08 10:07:47;;;;;;;;;2.33;2.33;;;;;16.02;60.90;100364.50;5056606;28;46954;-46
2022/11/08 10:10:22;;;;;;;;;3.33;2.00;;;;;16.15;60.96;100364.63;5056277;28;45538;-49
2022/11/08 10:13:02;;;;;;;;;3.00;3.00;;;;;16.32;60.60;100361.66;5057026;28;45421;-47
2022/11/08 10:15:42;;;;;;;;;4.25;2.25;;;;;16.30;60.54;100359.16;5057024;28;45549;-46
2022/11/08 10:18:50;;;;;;;;;4.00;3.67;;;;;16.32;60.90;100367.88;5054313;28;47090;-46
2022/11/08 10:21:18;;;;;;;;;4.00;4.00;;;;;16.26;60.97;100371.31;5056569;28;45456;-49
2022/11/08 10:23:51;;;;;;;;;3.00;3.00;;;;;16.32;60.83;100361.66;5056738;28;45508;-47
2022/11/08 10:26:19;;;;;;;;;3.25;3.25;;;;;16.47;60.92;100367.75;5056748;28;45553;-49
2022/11/08 10:28:58;;;;;;;;;3.25;3.25;;;;;16.54;60.79;100367.81;5055644;28;46378;-47
2022/11/08 10:31:29;;;;;;;;;2.00;2.00;;;;;16.58;60.66;100372.59;5056162;28;45713;-47
2022/11/08 10:33:57;;;;;;;;;8.00;4.25;;;;;16.56;60.94;100365.75;5056725;28;45451;-49
2022/11/08 10:36:29;;;;;;;;;4.75;3.00;;;;;16.56;60.77;100365.75;5056482;28;45599;-47
2022/11/08 10:39:02;;;;;;;;;5.00;5.00;;;;;16.63;61.45;100358.59;5056000;28;46286;-50
2022/11/08 10:41:38;;;;;;;;;2.00;2.00;;;;;16.68;60.96;100359.66;5055925;28;45411;-50
2022/11/08 10:44:11;;;;;;;;;4.50;3.25;;;;;16.74;61.44;100350.03;5056580;28;45490;-47
2022/11/08 10:46:59;;;;;;;;;4.25;3.00;;;;;16.75;61.09;100361.59;5056434;28;45908;-49
2022/11/08 10:49:31;;;;;;;;;4.00;4.00;;;;;17.02;60.62;100349.97;5055795;28;46358;-47
2022/11/08 10:52:19;;;;;;;;;3.50;3.00;;;;;17.35;60.56;100346.63;5055986;28;45918;-51
2022/11/08 10:54:44;;;;;;;;;0.00;0.00;;;;;17.66;59.49;100348.81;5056093;28;45537;-47
2022/11/08 10:57:12;;;;;;;;;5.00;4.00;;;;;17.64;59.31;100346.31;5056603;28;45445;-47
2022/11/08 10:59:38;;;;;;;;;2.00;2.00;;;;;17.74;59.07;100339.72;5055882;28;46100;-45
2022/11/08 11:02:18;;;;;;;;;3.00;3.00;;;;;17.70;59.60;100337.47;5054713;28;45433;-46
2022/11/08 11:04:43;;;;;;;;;5.50;2.00;;;;;17.74;59.31;100332.53;5055664;28;46270;-47
2022/11/08 11:07:26;;;;;;;;;4.00;3.75;;;;;17.82;59.33;100329.63;5056195;28;45265;-47
2022/11/08 11:09:51;;;;;;;;;2.00;2.00;;;;;17.84;59.18;100324.88;5054883;28;46325;-48
2022/11/08 11:12:16;;;;;;;;;4.00;2.00;;;;;17.82;59.14;100326.13;5055180;28;45541;-48
2022/11/08 11:14:42;;;;;;;;;3.00;2.00;;;;;17.81;59.31;100316.38;5055664;28;45400;-48
2022/11/08 11:17:16;;;;;;;;;3.00;3.00;;;;;17.74;59.65;100324.47;5055903;28;45497;-49
2022/11/08 11:19:53;;;;;;;;;5.25;3.50;;;;;17.69;59.94;100341.16;5055407;28;46437;-47
2022/11/08 11:22:48;;;;;;;;;3.00;3.00;;;;;17.68;59.88;100331.44;5055569;28;45491;-47
2022/11/08 11:25:18;;;;;;;;;5.00;3.00;;;;;17.63;60.00;100331.22;4973696;28;45576;-48
2022/11/08 11:27:50;;;;;;;;;4.50;3.00;;;;;17.67;60.52;100337.03;4974201;28;45560;-50
2022/11/08 11:30:34;;;;;;;;;4.00;4.00;;;;;17.77;59.93;100302.50;4972559;28;45523;-48
2022/11/08 11:32:59;;;;;;;;;6.50;5.25;;;;;17.85;59.83;100325.72;4973426;28;45455;-49
2022/11/08 11:35:49;;;;;;;;;6.00;6.00;;;;;17.90;59.81;100331.31;4973726;28;45489;-49
2022/11/08 11:38:40;;;;;;;;;2.25;2.25;;;;;18.06;59.58;100336.28;4976144;28;45307;-46
2022/11/08 11:41:13;;;;;;;;;4.00;2.00;;;;;18.02;59.31;100323.47;4937321;28;45387;-48
2022/11/08 11:44:12;;;;;;;;;5.25;3.75;;;;;17.96;59.90;100338.56;4937542;28;45508;-47
2022/11/08 11:46:49;;;;;;;;;4.00;2.50;;;;;17.85;60.02;100325.72;4937494;28;45545;-46
2022/11/08 11:49:21;;;;;;;;;4.75;4.25;;;;;17.70;60.28;100326.69;4937786;28;45410;-48